createdAt,value
2023-05-10T00:01:15.230Z,65.33
2023-05-10T00:04:19.992Z,68.49
2023-05-10T00:07:24.640Z,69.38
2023-05-10T00:10:30.341Z,71.50
2023-05-10T00:13:34.879Z,75.55
2023-05-10T00:16:39.391Z,77.13
2023-05-10T00:19:43.865Z,77.79
2023-05-10T00:22:48.379Z,74.30
2023-05-10T00:25:52.749Z,75.01
2023-05-10T00:28:57.969Z,74.47
2023-05-10T00:32:05.825Z,71.25
2023-05-10T00:35:10.541Z,73.73
2023-05-10T00:38:15.255Z,69.96
2023-05-10T00:41:19.730Z,67.76
2023-05-10T00:44:25.336Z,71.80
2023-05-10T00:47:30.136Z,74.03
2023-05-10T00:50:36.702Z,75.04
2023-05-10T00:53:41.600Z,76.11
2023-05-10T00:56:49.749Z,76.11
2023-05-10T00:59:54.587Z,79.87
2023-05-10T01:02:59.190Z,76.05
2023-05-10T01:06:04.335Z,77.05
2023-05-10T01:09:09.081Z,79.28
2023-05-10T01:12:14.068Z,76.30
2023-05-10T01:15:19.061Z,77.59
2023-05-10T01:18:24.312Z,77.38
2023-05-10T01:21:36.947Z,78.86
2023-05-10T01:25:04.989Z,81.14
2023-05-10T01:28:47.630Z,80.82
2023-05-10T01:31:59.546Z,80.57
2023-05-10T01:35:11.471Z,79.15
2023-05-10T01:38:19.699Z,78.87
2023-05-10T01:41:37.681Z,79.63
2023-05-10T01:45:25.225Z,80.09
2023-05-10T01:48:31.007Z,79.63
2023-05-10T01:51:52.668Z,78.55
2023-05-10T01:55:02.793Z,73.18
2023-05-10T01:58:12.866Z,75.40
2023-05-10T02:01:18.412Z,82.49
2023-05-10T02:04:24.695Z,83.73
2023-05-10T02:07:29.493Z,78.75
2023-05-10T02:10:35.339Z,86.90
2023-05-10T02:13:40.441Z,87.56
2023-05-10T02:16:46.252Z,82.93
2023-05-10T02:19:52.790Z,85.56
2023-05-10T02:22:59.504Z,90.13
2023-05-10T02:26:06.854Z,90.05
2023-05-10T02:29:13.597Z,92.73
2023-05-10T02:32:18.999Z,86.63
2023-05-10T02:35:24.664Z,92.72
2023-05-10T02:38:30.086Z,92.12
2023-05-10T02:41:35.058Z,92.03
2023-05-10T02:44:42.144Z,91.03
2023-05-10T02:47:46.745Z,88.00
2023-05-10T02:50:54.648Z,89.97
2023-05-10T02:54:07.889Z,86.31
2023-05-10T02:57:21.251Z,86.98
2023-05-10T03:00:26.708Z,79.26
2023-05-10T03:03:31.331Z,85.17
2023-05-10T03:06:35.927Z,84.80
2023-05-10T03:09:43.716Z,88.12
2023-05-10T03:13:15.131Z,86.16
2023-05-10T03:16:28.256Z,88.52
2023-05-10T03:20:03.162Z,87.46
2023-05-10T03:23:27.748Z,90.16
2023-05-10T03:26:33.531Z,88.73
2023-05-10T03:29:47.448Z,90.94
2023-05-10T03:32:52.698Z,86.99
2023-05-10T03:35:57.279Z,86.99
2023-05-10T03:39:01.929Z,90.06
2023-05-10T03:42:06.488Z,83.84
2023-05-10T03:45:11.194Z,84.61
2023-05-10T03:48:15.800Z,85.41
2023-05-10T03:51:23.120Z,89.71
2023-05-10T03:54:27.862Z,88.07
2023-05-10T03:57:32.539Z,92.95
2023-05-10T04:00:38.354Z,88.59
2023-05-10T04:03:42.983Z,89.92
2023-05-10T04:06:47.485Z,91.78
2023-05-10T04:09:53.436Z,88.60
2023-05-10T04:13:00.149Z,93.92
2023-05-10T04:16:05.788Z,92.85
2023-05-10T04:19:10.274Z,88.86
2023-05-10T04:22:14.850Z,85.42
2023-05-10T04:25:19.437Z,87.44
2023-05-10T04:28:23.965Z,89.07
2023-05-10T04:31:28.793Z,88.43
2023-05-10T04:34:35.118Z,89.86
2023-05-10T04:37:39.541Z,90.56
2023-05-10T04:40:44.014Z,90.92
2023-05-10T04:43:50.460Z,92.09
2023-05-10T04:46:54.875Z,90.66
2023-05-10T04:49:59.755Z,86.48
2023-05-10T04:53:04.278Z,91.10
2023-05-10T04:56:08.833Z,88.26
2023-05-10T04:59:13.305Z,91.95
2023-05-10T05:02:17.779Z,100.00
2023-05-10T05:05:22.312Z,100.00
2023-05-10T05:08:28.546Z,100.00
2023-05-10T05:11:32.961Z,100.00
2023-05-10T05:14:37.453Z,100.00
2023-05-10T05:17:41.935Z,100.00
2023-05-10T05:20:46.606Z,100.00
2023-05-10T05:23:51.165Z,100.00
2023-05-10T05:26:55.631Z,100.00
2023-05-10T05:30:00.147Z,100.00
2023-05-10T05:33:05.090Z,100.00
2023-05-10T05:36:09.694Z,100.00
2023-05-10T05:39:14.369Z,100.00
2023-05-10T05:42:19.730Z,100.00
2023-05-10T05:45:24.351Z,100.00
2023-05-10T05:48:31.037Z,100.00
2023-05-10T05:51:36.525Z,100.00
2023-05-10T05:54:41.068Z,100.00
2023-05-10T05:57:45.606Z,100.00
2023-05-10T06:00:50.477Z,100.00
2023-05-10T06:03:55.020Z,100.00
2023-05-10T06:06:59.619Z,100.00
2023-05-10T06:10:04.487Z,100.00
2023-05-10T06:13:09.089Z,100.00
2023-05-10T06:16:14.613Z,100.00
2023-05-10T06:19:19.124Z,100.00
2023-05-10T06:22:23.799Z,100.00
2023-05-10T06:25:29.384Z,100.00
2023-05-10T06:28:34.474Z,100.00
2023-05-10T06:31:39.112Z,100.00
2023-05-10T06:34:44.572Z,100.00
2023-05-10T06:37:49.425Z,100.00
2023-05-10T06:40:53.929Z,100.00
2023-05-10T06:43:58.331Z,100.00
2023-05-10T06:47:02.814Z,100.00
2023-05-10T06:50:09.293Z,100.00
2023-05-10T06:53:14.263Z,100.00
2023-05-10T06:56:18.712Z,100.00
2023-05-10T06:59:23.528Z,100.00
2023-05-10T07:02:28.354Z,100.00
2023-05-10T07:05:33.024Z,100.00
2023-05-10T07:08:37.565Z,100.00
2023-05-10T07:11:42.261Z,100.00
2023-05-10T07:14:47.488Z,100.00
2023-05-10T07:17:53.075Z,100.00
2023-05-10T07:20:58.429Z,100.00
2023-05-10T07:24:03.013Z,100.00
2023-05-10T07:27:07.517Z,100.00
2023-05-10T07:30:12.698Z,100.00
2023-05-10T07:33:17.281Z,100.00
2023-05-10T07:36:21.788Z,100.00
2023-05-10T07:39:28.272Z,100.00
2023-05-10T07:42:32.997Z,100.00
2023-05-10T07:45:37.465Z,100.00
2023-05-10T07:48:43.604Z,100.00
2023-05-10T07:51:48.108Z,100.00
2023-05-10T07:54:52.916Z,100.00
2023-05-10T07:57:57.726Z,100.00
2023-05-10T08:01:02.285Z,100.00
2023-05-10T08:04:07.070Z,100.00
2023-05-10T08:07:13.321Z,100.00
2023-05-10T08:10:17.950Z,100.00
2023-05-10T08:13:22.409Z,100.00
2023-05-10T08:16:27.180Z,100.00
2023-05-10T08:19:33.458Z,100.00
2023-05-10T08:22:38.251Z,100.00
2023-05-10T08:25:42.662Z,100.00
2023-05-10T08:28:47.154Z,100.00
2023-05-10T08:31:51.714Z,100.00
2023-05-10T08:34:56.875Z,100.00
2023-05-10T08:38:02.354Z,100.00
2023-05-10T08:41:07.333Z,100.00
2023-05-10T08:44:12.075Z,100.00
2023-05-10T08:47:19.006Z,100.00
2023-05-10T08:50:24.246Z,100.00
2023-05-10T08:53:29.857Z,100.00
2023-05-10T08:56:34.508Z,100.00
2023-05-10T08:59:40.385Z,100.00
2023-05-10T09:02:46.902Z,100.00
2023-05-10T09:05:51.687Z,100.00
2023-05-10T09:08:56.485Z,100.00
2023-05-10T09:12:01.027Z,100.00
2023-05-10T09:15:07.949Z,100.00
2023-05-10T09:18:13.083Z,100.00
2023-05-10T09:21:17.610Z,100.00
2023-05-10T09:24:26.946Z,100.00
2023-05-10T09:27:31.579Z,100.00
2023-05-10T09:30:36.791Z,100.00
2023-05-10T09:33:48.858Z,100.00
2023-05-10T09:36:55.482Z,100.00
2023-05-10T09:40:01.443Z,100.00
2023-05-10T09:43:08.735Z,100.00
2023-05-10T09:46:13.560Z,100.00
2023-05-10T09:49:18.020Z,100.00
2023-05-10T09:52:22.628Z,100.00
2023-05-10T09:55:50.188Z,100.00
2023-05-10T09:59:03.740Z,100.00
2023-05-10T10:02:08.436Z,100.00
2023-05-10T10:05:13.124Z,100.00
2023-05-10T10:08:19.851Z,100.00
2023-05-10T10:11:24.913Z,100.00
2023-05-10T10:14:29.741Z,100.00
2023-05-10T10:17:37.004Z,100.00
2023-05-10T10:20:43.055Z,100.00
2023-05-10T10:23:47.578Z,100.00
2023-05-10T10:26:56.471Z,100.00
2023-05-10T10:30:22.576Z,100.00
2023-05-10T10:33:56.569Z,100.00
2023-05-10T10:37:06.319Z,100.00
2023-05-10T10:40:34.853Z,100.00
2023-05-10T10:43:39.706Z,100.00
2023-05-10T10:47:01.604Z,100.00
2023-05-10T10:50:08.868Z,100.00
2023-05-10T10:53:14.102Z,100.00
2023-05-10T10:56:24.510Z,100.00
2023-05-10T10:59:30.576Z,100.00
2023-05-10T11:02:49.788Z,100.00
2023-05-10T11:05:59.455Z,100.00
2023-05-10T11:09:12.550Z,100.00
2023-05-10T11:12:17.129Z,100.00
2023-05-10T11:15:30.490Z,100.00
2023-05-10T11:18:37.886Z,100.00
2023-05-10T11:22:11.646Z,100.00
2023-05-10T11:25:17.580Z,100.00
2023-05-10T11:28:22.420Z,100.00
2023-05-10T11:31:27.960Z,100.00
2023-05-10T11:34:34.526Z,100.00
2023-05-10T11:37:44.525Z,100.00
2023-05-10T11:40:54.267Z,100.00
2023-05-10T11:43:59.385Z,100.00
2023-05-10T11:47:04.164Z,100.00
2023-05-10T11:50:09.174Z,100.00
2023-05-10T11:53:14.013Z,100.00
2023-05-10T11:56:18.525Z,100.00
2023-05-10T11:59:24.455Z,100.00
2023-05-10T12:02:29.808Z,100.00
2023-05-10T12:05:35.015Z,100.00
2023-05-10T12:08:46.326Z,100.00
2023-05-10T12:11:57.574Z,100.00
2023-05-10T12:15:04.225Z,100.00
2023-05-10T12:18:15.769Z,100.00
2023-05-10T12:21:21.613Z,100.00
2023-05-10T12:24:26.356Z,100.00
2023-05-10T12:27:33.996Z,100.00
2023-05-10T12:30:39.147Z,100.00
2023-05-10T12:33:44.936Z,100.00
2023-05-10T12:36:52.978Z,100.00
2023-05-10T12:39:57.402Z,100.00
2023-05-10T12:43:01.978Z,100.00
2023-05-10T12:46:10.800Z,100.00
2023-05-10T12:49:16.406Z,100.00
2023-05-10T12:52:20.927Z,100.00
2023-05-10T12:55:25.522Z,100.00
2023-05-10T12:58:35.974Z,100.00
2023-05-10T13:01:41.075Z,100.00
2023-05-10T13:04:48.767Z,100.00
2023-05-10T13:07:54.012Z,100.00
2023-05-10T13:10:58.526Z,100.00
2023-05-10T13:14:04.212Z,100.00
2023-05-10T13:17:08.984Z,100.00
2023-05-10T13:20:13.620Z,100.00
2023-05-10T13:23:19.771Z,100.00
2023-05-10T13:26:24.429Z,100.00
2023-05-10T13:29:29.058Z,100.00
2023-05-10T13:32:34.034Z,100.00
2023-05-10T13:35:38.565Z,100.00
2023-05-10T13:38:42.999Z,100.00
2023-05-10T13:41:47.658Z,100.00
2023-05-10T13:44:52.407Z,100.00
2023-05-10T13:47:56.966Z,100.00
2023-05-10T13:51:01.397Z,100.00
2023-05-10T13:54:05.999Z,100.00
2023-05-10T13:57:12.571Z,100.00
2023-05-10T14:00:17.710Z,100.00
2023-05-10T14:03:22.300Z,100.00
2023-05-10T14:06:28.595Z,100.00
2023-05-10T14:09:32.938Z,100.00
2023-05-10T14:12:37.469Z,100.00
2023-05-10T14:15:42.008Z,100.00
2023-05-10T14:18:47.135Z,100.00
2023-05-10T14:21:52.921Z,100.00
2023-05-10T14:24:57.633Z,100.00
2023-05-10T14:28:02.464Z,100.00
2023-05-10T14:31:07.080Z,100.00
2023-05-10T14:34:11.580Z,100.00
2023-05-10T14:37:17.413Z,100.00
2023-05-10T14:40:21.951Z,100.00
2023-05-10T14:43:28.428Z,100.00
2023-05-10T14:46:32.913Z,100.00
2023-05-10T14:49:38.093Z,100.00
2023-05-10T14:54:08.224Z,100.00
2023-05-10T14:57:12.649Z,100.00
2023-05-10T15:00:18.167Z,100.00
2023-05-10T15:03:23.588Z,100.00
2023-05-10T15:06:32.684Z,100.00
2023-05-10T15:09:37.146Z,100.00
2023-05-10T15:12:41.808Z,100.00
2023-05-10T15:15:46.253Z,100.00
2023-05-10T15:18:50.843Z,100.00
2023-05-10T15:21:56.224Z,100.00
2023-05-10T15:25:00.853Z,100.00
2023-05-10T15:28:05.799Z,100.00
2023-05-10T15:31:10.333Z,100.00
2023-05-10T15:34:15.164Z,100.00
2023-05-10T15:37:19.670Z,100.00
2023-05-10T15:40:24.212Z,100.00
2023-05-10T15:43:28.808Z,100.00
2023-05-10T15:46:33.332Z,100.00
2023-05-10T15:49:38.183Z,100.00
2023-05-10T15:52:42.794Z,100.00
2023-05-10T15:55:47.289Z,100.00
2023-05-10T15:58:51.797Z,100.00
2023-05-10T16:01:57.185Z,100.00
2023-05-10T16:05:01.869Z,100.00
2023-05-10T16:08:06.366Z,100.00
2023-05-10T16:11:11.011Z,100.00
2023-05-10T16:14:16.437Z,100.00
2023-05-10T16:17:20.972Z,100.00
2023-05-10T16:20:25.654Z,100.00
2023-05-10T16:23:30.619Z,100.00
2023-05-10T16:26:40.757Z,100.00
2023-05-10T16:29:47.330Z,100.00
2023-05-10T16:32:51.865Z,100.00
2023-05-10T16:35:56.614Z,100.00
2023-05-10T16:39:01.288Z,100.00
2023-05-10T16:42:06.178Z,100.00
2023-05-10T16:45:11.360Z,100.00
2023-05-10T16:48:15.813Z,100.00
2023-05-10T16:51:20.668Z,100.00
2023-05-10T16:54:26.072Z,100.00
2023-05-10T16:57:30.937Z,100.00
2023-05-10T17:00:35.523Z,100.00
2023-05-10T17:03:40.139Z,100.00
2023-05-10T17:06:44.746Z,100.00
2023-05-10T17:09:49.484Z,100.00
2023-05-10T17:12:53.905Z,100.00
2023-05-10T17:15:58.839Z,100.00
2023-05-10T17:19:03.569Z,100.00
2023-05-10T17:22:08.135Z,100.00
2023-05-10T17:25:12.824Z,100.00
2023-05-10T17:28:17.259Z,100.00
2023-05-10T17:31:21.810Z,100.00
2023-05-10T17:34:26.466Z,100.00
2023-05-10T17:37:33.128Z,100.00
2023-05-10T17:40:40.552Z,100.00
2023-05-10T17:43:45.097Z,100.00
2023-05-10T17:46:49.616Z,100.00
2023-05-10T17:49:54.240Z,100.00
2023-05-10T17:52:58.908Z,100.00
2023-05-10T17:56:03.607Z,100.00
2023-05-10T17:59:08.102Z,100.00
2023-05-10T18:02:13.533Z,100.00
2023-05-10T18:05:18.536Z,100.00
2023-05-10T18:08:26.704Z,100.00
2023-05-10T18:11:31.126Z,100.00
2023-05-10T18:14:40.989Z,100.00
2023-05-10T18:17:46.305Z,100.00
2023-05-10T18:20:56.471Z,100.00
2023-05-10T18:24:01.856Z,100.00
2023-05-10T18:27:08.268Z,100.00
2023-05-10T18:30:13.791Z,100.00
2023-05-10T18:33:18.462Z,100.00
2023-05-10T18:36:23.316Z,100.00
2023-05-10T18:39:27.693Z,100.00
2023-05-10T18:42:32.115Z,100.00
2023-05-10T18:45:36.903Z,100.00
2023-05-10T18:48:41.360Z,100.00
2023-05-10T18:51:46.031Z,100.00
2023-05-10T18:54:50.658Z,100.00
2023-05-10T18:57:55.291Z,100.00
2023-05-10T19:00:59.898Z,100.00
2023-05-10T19:04:04.481Z,100.00
2023-05-10T19:07:09.062Z,100.00
2023-05-10T19:10:13.922Z,100.00
2023-05-10T19:13:18.586Z,100.00
2023-05-10T19:16:24.110Z,100.00
2023-05-10T19:19:29.061Z,100.00
2023-05-10T19:22:45.463Z,100.00
2023-05-10T19:25:53.803Z,100.00
2023-05-10T19:28:58.331Z,100.00
2023-05-10T19:32:02.941Z,100.00
2023-05-10T19:35:08.029Z,100.00
2023-05-10T19:38:12.531Z,100.00
2023-05-10T19:41:17.079Z,100.00
2023-05-10T19:44:22.925Z,100.00
2023-05-10T19:47:27.428Z,100.00
2023-05-10T19:50:31.856Z,100.00
2023-05-10T19:53:36.511Z,100.00
2023-05-10T19:56:41.189Z,100.00
2023-05-10T19:59:45.601Z,100.00
2023-05-10T20:02:50.321Z,100.00
2023-05-10T20:05:55.150Z,100.00
2023-05-10T20:08:59.575Z,100.00
2023-05-10T20:12:04.392Z,100.00
2023-05-10T20:15:09.074Z,100.00
2023-05-10T20:18:13.700Z,100.00
2023-05-10T20:21:18.605Z,100.00
2023-05-10T20:24:23.069Z,100.00
2023-05-10T20:27:27.616Z,100.00
2023-05-10T20:30:32.226Z,100.00
2023-05-10T20:33:36.910Z,100.00
2023-05-10T20:36:41.505Z,100.00
2023-05-10T20:39:46.630Z,100.00
2023-05-10T20:42:54.009Z,100.00
2023-05-10T20:46:05.113Z,100.00
2023-05-10T20:49:09.797Z,100.00
2023-05-10T20:52:14.313Z,100.00
2023-05-10T20:55:19.018Z,100.00
2023-05-10T20:58:23.630Z,100.00
2023-05-10T21:01:28.137Z,100.00
2023-05-10T21:04:32.792Z,100.00
2023-05-10T21:07:37.820Z,100.00
2023-05-10T21:10:42.326Z,100.00
2023-05-10T21:13:46.835Z,100.00
2023-05-10T21:16:51.654Z,100.00
2023-05-10T21:19:56.073Z,100.00
2023-05-10T21:23:00.611Z,100.00
2023-05-10T21:26:05.601Z,100.00
2023-05-10T21:29:10.099Z,100.00
2023-05-10T21:32:15.009Z,100.00
2023-05-10T21:35:19.558Z,100.00
2023-05-10T21:38:23.861Z,100.00
2023-05-10T21:41:28.834Z,100.00
2023-05-10T21:44:33.558Z,100.00
2023-05-10T21:47:38.074Z,100.00
2023-05-10T21:50:43.922Z,100.00
2023-05-10T21:53:48.639Z,100.00
2023-05-10T21:56:53.224Z,100.00
2023-05-10T21:59:57.766Z,100.00
2023-05-10T22:03:02.368Z,100.00
2023-05-10T22:06:06.915Z,100.00
2023-05-10T22:09:11.638Z,100.00
2023-05-10T22:12:16.236Z,100.00
2023-05-10T22:15:20.834Z,100.00
2023-05-10T22:18:25.640Z,100.00
2023-05-10T22:21:30.614Z,100.00
2023-05-10T22:24:35.313Z,100.00
2023-05-10T22:27:39.798Z,100.00
2023-05-10T22:30:44.422Z,100.00
2023-05-10T22:33:49.096Z,100.00
2023-05-10T22:36:53.926Z,100.00
2023-05-10T22:39:58.528Z,100.00
2023-05-10T22:43:03.257Z,100.00
2023-05-10T22:46:07.730Z,100.00
2023-05-10T22:49:13.307Z,100.00
2023-05-10T22:52:17.782Z,100.00
2023-05-10T22:55:22.986Z,100.00
2023-05-10T22:58:27.892Z,100.00
2023-05-10T23:01:32.428Z,100.00
2023-05-10T23:04:37.122Z,100.00
2023-05-10T23:07:41.875Z,100.00
2023-05-10T23:10:46.665Z,100.00
2023-05-10T23:13:51.936Z,100.00
2023-05-10T23:16:56.490Z,100.00
2023-05-10T23:20:01.114Z,100.00
2023-05-10T23:23:05.465Z,100.00
2023-05-10T23:26:10.075Z,100.00
2023-05-10T23:29:14.779Z,100.00
2023-05-10T23:32:19.186Z,100.00
2023-05-10T23:35:23.723Z,100.00
2023-05-10T23:38:28.112Z,100.00
2023-05-10T23:41:32.606Z,100.00
2023-05-10T23:44:37.033Z,100.00
2023-05-10T23:47:41.553Z,100.00
2023-05-10T23:50:46.652Z,100.00
2023-05-10T23:53:51.163Z,100.00
2023-05-10T23:56:55.883Z,100.00
